createdAt,value
2023-01-21T00:01:13.361Z,-1.00
2023-01-21T00:03:40.680Z,-1.00
2023-01-21T00:06:08.283Z,-1.10
2023-01-21T00:08:35.309Z,-1.10
2023-01-21T00:11:14.240Z,-1.10
2023-01-21T00:13:42.439Z,-1.10
2023-01-21T00:16:13.883Z,-1.10
2023-01-21T00:18:41.049Z,-1.10
2023-01-21T00:21:08.189Z,-1.10
2023-01-21T00:23:35.019Z,-1.10
2023-01-21T00:26:05.705Z,-1.10
2023-01-21T00:28:35.831Z,-1.20
2023-01-21T00:31:06.591Z,-1.20
2023-01-21T00:33:34.493Z,-1.20
2023-01-21T00:36:10.459Z,-1.20
2023-01-21T00:38:38.007Z,-1.20
2023-01-21T00:41:12.299Z,-1.20
2023-01-21T00:43:40.497Z,-1.30
2023-01-21T00:46:08.504Z,-1.30
2023-01-21T00:48:36.317Z,-1.30
2023-01-21T00:51:03.969Z,-1.30
2023-01-21T00:53:34.761Z,-1.30
2023-01-21T00:56:07.440Z,-1.30
2023-01-21T00:58:35.084Z,-1.30
2023-01-21T01:01:04.753Z,-1.30
2023-01-21T01:03:32.780Z,-1.30
2023-01-21T01:06:10.771Z,-1.30
2023-01-21T01:08:38.230Z,-1.30
2023-01-21T01:11:05.703Z,-1.30
2023-01-21T01:13:35.394Z,-1.30
2023-01-21T01:16:03.228Z,-1.30
2023-01-21T01:18:33.589Z,-1.30
2023-01-21T01:21:00.934Z,-1.30
2023-01-21T01:23:28.134Z,-1.30
2023-01-21T01:26:17.757Z,-1.30
2023-01-21T01:28:45.997Z,-1.30
2023-01-21T01:31:17.734Z,-1.30
2023-01-21T01:33:45.555Z,-1.30
2023-01-21T01:36:23.504Z,-1.30
2023-01-21T01:38:52.155Z,-1.30
2023-01-21T01:41:27.974Z,-1.30
2023-01-21T01:44:00.093Z,-1.30
2023-01-21T01:46:38.709Z,-1.30
2023-01-21T01:49:19.351Z,-1.40
2023-01-21T01:52:03.461Z,-1.40
2023-01-21T01:54:42.005Z,-1.40
2023-01-21T01:57:15.301Z,-1.40
2023-01-21T01:59:45.005Z,-1.50
2023-01-21T02:02:18.486Z,-1.50
2023-01-21T02:04:52.486Z,-1.50
2023-01-21T02:07:24.564Z,-1.60
2023-01-21T02:09:56.397Z,-1.60
2023-01-21T02:12:24.508Z,-1.60
2023-01-21T02:14:56.825Z,-1.60
2023-01-21T02:18:06.329Z,-1.60
2023-01-21T02:21:04.349Z,-1.60
2023-01-21T02:24:24.783Z,-1.60
2023-01-21T02:27:37.491Z,-1.70
2023-01-21T02:30:44.982Z,-1.70
2023-01-21T02:34:05.462Z,-1.70
2023-01-21T02:36:59.475Z,-1.70
2023-01-21T02:40:12.739Z,-1.70
2023-01-21T02:43:18.682Z,-1.80
2023-01-21T02:45:59.697Z,-1.80
2023-01-21T02:48:37.573Z,-1.70
2023-01-21T02:51:06.055Z,-1.70
2023-01-21T02:53:36.755Z,-1.80
2023-01-21T02:56:15.998Z,-1.80
2023-01-21T02:58:56.446Z,-1.80
2023-01-21T03:01:58.214Z,-1.80
2023-01-21T03:04:43.735Z,-1.80
2023-01-21T03:07:50.815Z,-1.80
2023-01-21T03:10:38.752Z,-1.90
2023-01-21T03:13:44.375Z,-1.90
2023-01-21T03:16:35.660Z,-1.90
2023-01-21T03:19:10.820Z,-1.90
2023-01-21T03:21:40.980Z,-2.00
2023-01-21T03:24:11.186Z,-2.00
2023-01-21T03:26:47.536Z,-2.00
2023-01-21T03:29:24.498Z,-2.10
2023-01-21T03:31:59.571Z,-2.10
2023-01-21T03:34:33.281Z,-2.10
2023-01-21T03:37:16.492Z,-2.10
2023-01-21T03:39:58.842Z,-2.20
2023-01-21T03:42:28.266Z,-2.20
2023-01-21T03:44:56.337Z,-2.20
2023-01-21T03:47:29.495Z,-2.20
2023-01-21T03:50:05.497Z,-2.20
2023-01-21T03:52:33.274Z,-2.20
2023-01-21T03:55:00.676Z,-2.20
2023-01-21T03:57:28.065Z,-2.20
2023-01-21T03:59:56.115Z,-2.20
2023-01-21T04:02:23.224Z,-2.20
2023-01-21T04:04:51.526Z,-2.30
2023-01-21T04:07:19.379Z,-2.30
2023-01-21T04:09:46.339Z,-2.30
2023-01-21T04:12:13.622Z,-2.40
2023-01-21T04:14:40.547Z,-2.40
2023-01-21T04:17:07.702Z,-2.40
2023-01-21T04:19:35.051Z,-2.50
2023-01-21T04:22:02.434Z,-2.50
2023-01-21T04:24:29.308Z,-2.50
2023-01-21T04:26:56.288Z,-2.50
2023-01-21T04:29:23.227Z,-2.50
2023-01-21T04:31:50.201Z,-2.50
2023-01-21T04:34:17.204Z,-2.50
2023-01-21T04:36:44.143Z,-2.50
2023-01-21T04:39:11.408Z,-2.50
2023-01-21T04:41:38.484Z,-2.50
2023-01-21T04:44:05.913Z,-2.50
2023-01-21T04:46:33.035Z,-2.50
2023-01-21T04:49:00.064Z,-2.50
2023-01-21T04:51:27.007Z,-2.60
2023-01-21T04:53:53.852Z,-2.60
2023-01-21T04:56:21.124Z,-2.60
2023-01-21T04:58:48.044Z,-2.60
2023-01-21T05:01:15.145Z,-2.60
2023-01-21T05:03:42.153Z,-2.70
2023-01-21T05:06:09.183Z,-2.70
2023-01-21T05:08:36.205Z,-2.70
2023-01-21T05:11:03.163Z,-2.70
2023-01-21T05:13:30.146Z,-2.80
2023-01-21T05:16:08.569Z,-2.80
2023-01-21T05:18:37.705Z,-2.80
2023-01-21T05:21:05.702Z,-2.90
2023-01-21T05:23:32.933Z,-2.90
2023-01-21T05:25:59.861Z,-2.90
2023-01-21T05:28:26.761Z,-2.90
2023-01-21T05:30:53.960Z,-2.90
2023-01-21T05:33:26.063Z,-2.90
2023-01-21T05:35:53.040Z,-2.90
2023-01-21T05:38:19.981Z,-2.90
2023-01-21T05:40:47.007Z,-2.90
2023-01-21T05:43:13.951Z,-2.90
2023-01-21T05:45:40.880Z,-3.00
2023-01-21T05:48:07.726Z,-3.00
2023-01-21T05:50:34.617Z,-3.00
2023-01-21T05:53:01.492Z,-3.00
2023-01-21T05:55:28.411Z,-3.00
2023-01-21T05:57:55.323Z,-3.10
2023-01-21T06:00:22.793Z,-3.10
2023-01-21T06:02:49.664Z,-3.10
2023-01-21T06:05:16.790Z,-3.10
2023-01-21T06:07:43.643Z,-3.20
2023-01-21T06:10:11.064Z,-3.20
2023-01-21T06:12:37.921Z,-3.20
2023-01-21T06:15:05.554Z,-3.20
2023-01-21T06:17:32.377Z,-3.30
2023-01-21T06:19:59.233Z,-3.30
2023-01-21T06:22:26.133Z,-3.30
2023-01-21T06:24:52.989Z,-3.30
2023-01-21T06:27:20.075Z,-3.30
2023-01-21T06:29:47.098Z,-3.40
2023-01-21T06:32:14.183Z,-3.40
2023-01-21T06:34:41.115Z,-3.40
2023-01-21T06:37:08.180Z,-3.40
2023-01-21T06:39:35.476Z,-3.40
2023-01-21T06:42:05.508Z,-3.40
2023-01-21T06:44:32.357Z,-3.40
2023-01-21T06:47:01.310Z,-3.40
2023-01-21T06:49:28.884Z,-3.40
2023-01-21T06:51:56.372Z,-3.40
2023-01-21T06:54:23.468Z,-3.40
2023-01-21T06:56:50.325Z,-3.40
2023-01-21T06:59:17.270Z,-3.40
2023-01-21T07:01:44.409Z,-3.40
2023-01-21T07:04:11.340Z,-3.40
2023-01-21T07:06:38.660Z,-3.50
2023-01-21T07:09:07.200Z,-3.50
2023-01-21T07:11:34.937Z,-3.50
2023-01-21T07:14:02.033Z,-3.50
2023-01-21T07:16:28.973Z,-3.50
2023-01-21T07:18:55.942Z,-3.50
2023-01-21T07:21:24.995Z,-3.60
2023-01-21T07:23:55.758Z,-3.50
2023-01-21T07:26:23.150Z,-3.60
2023-01-21T07:28:50.110Z,-3.60
2023-01-21T07:31:17.085Z,-3.60
2023-01-21T07:33:44.123Z,-3.60
2023-01-21T07:36:11.048Z,-3.60
2023-01-21T07:38:38.114Z,-3.60
2023-01-21T07:41:05.177Z,-3.50
2023-01-21T07:43:32.107Z,-3.60
2023-01-21T07:46:00.460Z,-3.60
2023-01-21T07:48:27.809Z,-3.50
2023-01-21T07:51:00.692Z,-3.50
2023-01-21T07:53:27.797Z,-3.50
2023-01-21T07:55:54.732Z,-3.40
2023-01-21T07:58:22.078Z,-3.30
2023-01-21T08:00:49.183Z,-3.30
2023-01-21T08:03:19.930Z,-3.30
2023-01-21T08:05:47.129Z,-3.20
2023-01-21T08:08:14.443Z,-3.20
2023-01-21T08:10:41.878Z,-3.20
2023-01-21T08:13:08.910Z,-3.20
2023-01-21T08:15:36.435Z,-3.20
2023-01-21T08:18:03.557Z,-3.10
2023-01-21T08:20:30.544Z,-3.00
2023-01-21T08:23:00.715Z,-2.90
2023-01-21T08:25:27.916Z,-2.80
2023-01-21T08:27:55.137Z,-2.60
2023-01-21T08:30:22.406Z,-2.60
2023-01-21T08:32:49.790Z,-2.50
2023-01-21T08:35:17.273Z,-2.40
2023-01-21T08:37:44.790Z,-2.30
2023-01-21T08:40:15.906Z,-2.20
2023-01-21T08:42:43.175Z,-2.20
2023-01-21T08:45:10.723Z,-2.10
2023-01-21T08:47:37.614Z,-2.00
2023-01-21T08:50:04.857Z,-1.90
2023-01-21T08:52:31.905Z,-1.80
2023-01-21T08:54:59.766Z,-1.80
2023-01-21T08:57:27.984Z,-1.70
2023-01-21T08:59:54.843Z,-1.60
2023-01-21T09:02:21.787Z,-1.50
2023-01-21T09:04:50.609Z,-1.50
2023-01-21T09:14:16.212Z,-1.30
2023-01-21T09:54:02.136Z,-0.50
2023-01-21T09:58:08.895Z,-0.50
2023-01-21T10:01:50.613Z,-0.40
2023-01-21T10:04:48.102Z,-0.40
2023-01-21T10:07:38.195Z,-0.40
2023-01-21T10:10:46.331Z,-0.30
2023-01-21T10:17:56.756Z,-0.20
2023-01-21T10:20:39.083Z,-0.10
2023-01-21T10:23:17.121Z,-0.10
2023-01-21T10:25:50.835Z,0.00
2023-01-21T10:28:47.601Z,0.00
2023-01-21T10:31:26.805Z,0.10
2023-01-21T10:34:03.949Z,0.20
2023-01-21T10:46:30.703Z,0.30
2023-01-21T10:49:31.499Z,0.40
2023-01-21T10:52:35.050Z,0.50
2023-01-21T10:55:26.608Z,0.60
2023-01-21T10:58:02.972Z,0.60
2023-01-21T11:00:44.591Z,0.60
2023-01-21T11:03:30.909Z,0.70
2023-01-21T11:06:01.364Z,0.70
2023-01-21T11:08:28.523Z,0.70
2023-01-21T11:10:56.200Z,0.80
2023-01-21T11:13:23.944Z,0.80
2023-01-21T11:15:56.693Z,0.90
2023-01-21T11:18:41.962Z,0.90
2023-01-21T11:21:22.227Z,1.00
2023-01-21T11:24:03.560Z,1.00
2023-01-21T11:26:38.297Z,1.10
2023-01-21T11:29:17.657Z,1.30
2023-01-21T11:32:01.921Z,1.40
2023-01-21T11:34:29.847Z,1.50
2023-01-21T11:37:25.986Z,1.60
2023-01-21T11:39:59.520Z,1.70
2023-01-21T11:42:27.039Z,1.70
2023-01-21T11:45:04.346Z,1.70
2023-01-21T11:59:30.988Z,1.90
2023-01-21T12:02:20.989Z,1.90
2023-01-21T12:05:13.267Z,2.00
2023-01-21T12:07:42.896Z,2.00
2023-01-21T12:10:13.019Z,2.00
2023-01-21T12:13:12.825Z,2.10
2023-01-21T12:16:16.365Z,2.20
2023-01-21T12:19:21.416Z,2.20
2023-01-21T12:22:01.366Z,2.30
2023-01-21T12:25:03.681Z,2.30
2023-01-21T12:27:54.885Z,2.30
2023-01-21T12:30:46.708Z,2.40
2023-01-21T12:33:40.181Z,2.40
2023-01-21T12:36:20.495Z,2.30
2023-01-21T12:39:16.307Z,2.30
2023-01-21T12:41:48.826Z,2.30
2023-01-21T12:44:36.069Z,2.30
2023-01-21T12:47:35.936Z,2.30
2023-01-21T12:50:05.759Z,2.30
2023-01-21T12:52:48.516Z,2.30
2023-01-21T12:55:24.265Z,2.30
2023-01-21T12:58:10.327Z,2.30
2023-01-21T13:00:43.309Z,2.30
2023-01-21T13:03:17.952Z,2.30
2023-01-21T13:05:56.312Z,2.40
2023-01-21T13:08:56.074Z,2.40
2023-01-21T13:11:36.564Z,2.40
2023-01-21T13:14:09.152Z,2.50
2023-01-21T13:16:48.297Z,2.50
2023-01-21T13:19:16.758Z,2.60
2023-01-21T13:22:33.977Z,2.60
2023-01-21T13:25:21.157Z,2.60
2023-01-21T13:28:00.068Z,2.60
2023-01-21T13:30:39.567Z,2.60
2023-01-21T13:33:38.226Z,2.70
2023-01-21T13:36:39.789Z,2.70
2023-01-21T13:39:38.258Z,2.60
2023-01-21T13:42:41.526Z,2.60
2023-01-21T13:45:54.242Z,2.60
2023-01-21T13:49:34.857Z,2.60
2023-01-21T13:52:28.284Z,2.60
2023-01-21T13:55:38.038Z,2.60
2023-01-21T13:58:12.888Z,2.60
2023-01-21T14:00:53.819Z,2.60
2023-01-21T14:03:26.514Z,2.70
2023-01-21T14:06:06.052Z,2.70
2023-01-21T14:08:54.785Z,2.80
2023-01-21T14:11:39.630Z,2.80
2023-01-21T14:14:39.437Z,2.70
2023-01-21T14:17:44.498Z,2.70
2023-01-21T14:21:06.361Z,2.70
2023-01-21T14:23:58.191Z,2.80
2023-01-21T14:26:35.627Z,2.90
2023-01-21T14:29:14.380Z,2.90
2023-01-21T14:32:13.792Z,3.00
2023-01-21T14:35:13.751Z,3.10
2023-01-21T14:38:26.307Z,3.20
2023-01-21T14:41:11.787Z,3.20
2023-01-21T14:43:40.204Z,3.20
2023-01-21T14:46:33.558Z,3.20
2023-01-21T14:49:10.251Z,3.20
2023-01-21T14:51:49.567Z,3.10
2023-01-21T14:54:25.026Z,3.10
2023-01-21T14:57:10.233Z,3.00
2023-01-21T14:59:46.136Z,3.00
2023-01-21T15:02:48.020Z,3.00
2023-01-21T15:05:21.775Z,2.90
2023-01-21T15:08:04.402Z,2.90
2023-01-21T15:10:37.717Z,2.80
2023-01-21T15:13:30.453Z,2.80
2023-01-21T15:16:05.551Z,2.80
2023-01-21T15:19:05.266Z,2.80
2023-01-21T15:21:40.533Z,2.70
2023-01-21T15:24:24.481Z,2.70
2023-01-21T15:27:25.656Z,2.70
2023-01-21T15:29:55.183Z,2.60
2023-01-21T15:32:28.311Z,2.70
2023-01-21T15:35:24.563Z,2.60
2023-01-21T15:38:01.260Z,2.60
2023-01-21T15:40:37.584Z,2.50
2023-01-21T15:43:54.953Z,2.50
2023-01-21T15:46:53.343Z,2.50
2023-01-21T15:49:41.023Z,2.40
2023-01-21T15:52:29.438Z,2.40
2023-01-21T15:55:32.178Z,2.40
2023-01-21T15:58:29.792Z,2.40
2023-01-21T16:01:33.312Z,2.30
2023-01-21T16:04:30.678Z,2.30
2023-01-21T16:07:39.783Z,2.30
2023-01-21T16:10:26.837Z,2.20
2023-01-21T16:13:05.565Z,2.20
2023-01-21T16:15:55.706Z,2.20
2023-01-21T16:18:38.903Z,2.20
2023-01-21T16:21:10.088Z,2.10
2023-01-21T16:23:43.223Z,2.10
2023-01-21T16:26:10.295Z,2.10
2023-01-21T16:29:11.062Z,2.10
2023-01-21T16:32:05.032Z,2.00
2023-01-21T16:34:41.298Z,2.00
2023-01-21T16:37:19.566Z,2.00
2023-01-21T16:39:50.531Z,2.00
2023-01-21T16:42:36.344Z,2.00
2023-01-21T16:45:26.215Z,2.00
2023-01-21T16:47:59.522Z,2.00
2023-01-21T16:50:31.040Z,2.00
2023-01-21T16:53:06.063Z,1.90
2023-01-21T16:55:33.613Z,1.90
2023-01-21T16:58:00.775Z,1.90
2023-01-21T17:00:32.734Z,2.00
2023-01-21T17:03:04.998Z,2.00
2023-01-21T17:05:36.485Z,1.90
2023-01-21T17:08:14.907Z,1.90
2023-01-21T17:11:13.879Z,1.90
2023-01-21T17:13:43.573Z,1.90
2023-01-21T17:16:35.323Z,1.90
2023-01-21T17:19:17.812Z,1.80
2023-01-21T17:21:58.075Z,1.70
2023-01-21T17:25:24.363Z,1.70
2023-01-21T17:27:52.114Z,1.60
2023-01-21T17:30:35.589Z,1.60
2023-01-21T17:33:06.602Z,1.60
2023-01-21T17:36:36.070Z,1.50
2023-01-21T17:39:12.153Z,1.50
2023-01-21T17:42:20.565Z,1.50
2023-01-21T17:44:50.400Z,1.50
2023-01-21T17:47:59.052Z,1.40
2023-01-21T17:53:31.732Z,1.40
2023-01-21T17:56:09.580Z,1.40
2023-01-21T17:58:53.220Z,1.40
2023-01-21T18:01:31.852Z,1.30
2023-01-21T18:04:06.008Z,1.30
2023-01-21T18:06:56.073Z,1.30
2023-01-21T18:09:25.458Z,1.30
2023-01-21T18:11:57.239Z,1.30
2023-01-21T18:14:26.980Z,1.30
2023-01-21T18:21:33.139Z,1.20
2023-01-21T18:24:00.335Z,1.20
2023-01-21T18:26:33.389Z,1.20
2023-01-21T18:29:00.584Z,1.20
2023-01-21T18:31:31.431Z,1.20
2023-01-21T18:33:58.663Z,1.10
2023-01-21T18:37:03.619Z,1.10
2023-01-21T18:39:47.171Z,1.10
2023-01-21T18:42:34.922Z,1.10
2023-01-21T18:45:02.009Z,1.10
2023-01-21T18:47:32.706Z,1.10
2023-01-21T18:50:02.971Z,1.10
2023-01-21T18:52:30.277Z,1.20
2023-01-21T18:54:58.505Z,1.20
2023-01-21T18:57:26.951Z,1.20
2023-01-21T18:59:58.298Z,1.20
2023-01-21T19:02:26.659Z,1.30
2023-01-21T19:04:54.185Z,1.30
2023-01-21T19:07:30.723Z,1.30
2023-01-21T19:10:04.032Z,1.30
2023-01-21T19:12:31.206Z,1.30
2023-01-21T19:15:04.875Z,1.20
2023-01-21T19:17:33.759Z,1.30
2023-01-21T19:20:01.930Z,1.20
2023-01-21T19:22:29.157Z,1.20
2023-01-21T19:24:56.125Z,1.20
2023-01-21T19:27:37.184Z,1.20
2023-01-21T19:30:20.542Z,1.20
2023-01-21T19:32:48.309Z,1.20
2023-01-21T19:35:19.228Z,1.20
2023-01-21T19:37:51.037Z,1.20
2023-01-21T19:40:24.643Z,1.20
2023-01-21T19:42:51.992Z,1.10
2023-01-21T19:45:20.625Z,1.20
2023-01-21T19:47:50.835Z,1.10
2023-01-21T19:50:22.632Z,1.10
2023-01-21T19:52:51.935Z,1.10
2023-01-21T19:55:23.313Z,1.10
2023-01-21T19:57:59.678Z,1.10
2023-01-21T20:00:38.071Z,1.10
2023-01-21T20:03:05.084Z,1.10
2023-01-21T20:05:33.687Z,1.10
2023-01-21T20:08:02.523Z,1.10
2023-01-21T20:10:30.713Z,1.10
2023-01-21T20:12:58.071Z,1.10
2023-01-21T20:15:36.308Z,1.10
2023-01-21T20:18:04.277Z,1.10
2023-01-21T20:20:33.345Z,1.10
2023-01-21T20:23:01.545Z,1.10
2023-01-21T20:25:38.850Z,1.10
2023-01-21T20:28:18.431Z,1.10
2023-01-21T20:30:47.044Z,1.10
2023-01-21T20:33:20.439Z,1.10
2023-01-21T20:35:50.467Z,1.10
2023-01-21T20:38:31.446Z,1.10
2023-01-21T20:40:59.708Z,1.00
2023-01-21T20:43:28.092Z,1.00
2023-01-21T20:46:00.729Z,1.00
2023-01-21T20:48:35.670Z,1.00
2023-01-21T20:51:03.270Z,1.00
2023-01-21T20:53:30.760Z,1.00
2023-01-21T20:56:02.892Z,0.90
2023-01-21T20:58:29.810Z,0.90
2023-01-21T21:00:56.602Z,0.90
2023-01-21T21:03:23.432Z,0.90
2023-01-21T21:05:50.328Z,0.90
2023-01-21T21:08:21.524Z,0.90
2023-01-21T21:10:52.762Z,0.90
2023-01-21T21:13:19.590Z,0.90
2023-01-21T21:15:47.652Z,0.90
2023-01-21T21:18:14.820Z,0.90
2023-01-21T21:20:42.475Z,0.90
2023-01-21T21:23:14.389Z,0.90
2023-01-21T21:25:47.014Z,0.90
2023-01-21T21:28:17.107Z,0.90
2023-01-21T21:30:45.108Z,0.90
2023-01-21T21:33:20.550Z,0.90
2023-01-21T21:35:49.493Z,0.90
2023-01-21T21:38:21.951Z,0.90
2023-01-21T21:40:53.113Z,0.90
2023-01-21T21:43:35.939Z,0.90
2023-01-21T21:46:26.747Z,0.90
2023-01-21T21:48:53.996Z,0.80
2023-01-21T21:51:24.095Z,0.80
2023-01-21T21:53:51.904Z,0.80
2023-01-21T21:56:23.150Z,0.80
2023-01-21T21:58:51.629Z,0.80
2023-01-21T22:01:30.407Z,0.70
2023-01-21T22:04:03.131Z,0.70
2023-01-21T22:06:30.883Z,0.70
2023-01-21T22:08:58.803Z,0.60
2023-01-21T22:11:27.730Z,0.60
2023-01-21T22:13:56.346Z,0.60
2023-01-21T22:16:28.030Z,0.50
2023-01-21T22:18:57.797Z,0.50
2023-01-21T22:21:31.986Z,0.40
2023-01-21T22:24:03.387Z,0.40
2023-01-21T22:26:31.017Z,0.40
2023-01-21T22:28:58.589Z,0.40
2023-01-21T22:31:29.563Z,0.40
2023-01-21T22:33:58.728Z,0.40
2023-01-21T22:36:29.692Z,0.40
2023-01-21T22:38:57.132Z,0.30
2023-01-21T22:41:25.302Z,0.30
2023-01-21T22:43:53.466Z,0.30
2023-01-21T22:46:30.068Z,0.30
2023-01-21T22:48:58.317Z,0.20
2023-01-21T22:51:26.183Z,0.20
2023-01-21T22:53:54.174Z,0.20
2023-01-21T22:56:39.970Z,0.20
2023-01-21T22:59:11.512Z,0.20
2023-01-21T23:01:38.790Z,0.10
2023-01-21T23:04:06.283Z,0.10
2023-01-21T23:06:33.147Z,0.10
2023-01-21T23:09:00.115Z,0.10
2023-01-21T23:11:26.970Z,0.10
2023-01-21T23:13:55.125Z,0.10
2023-01-21T23:16:22.079Z,0.10
2023-01-21T23:18:49.531Z,0.10
2023-01-21T23:21:20.345Z,0.00
2023-01-21T23:23:47.734Z,0.00
2023-01-21T23:26:15.777Z,0.00
2023-01-21T23:28:43.168Z,-0.10
2023-01-21T23:31:17.200Z,-0.10
2023-01-21T23:33:48.242Z,-0.10
2023-01-21T23:36:15.167Z,-0.10
2023-01-21T23:38:42.399Z,0.00
2023-01-21T23:41:13.348Z,0.00
2023-01-21T23:43:40.494Z,0.00
2023-01-21T23:46:11.848Z,0.00
2023-01-21T23:48:39.795Z,0.10
2023-01-21T23:51:11.378Z,0.10
2023-01-21T23:53:38.245Z,0.10
2023-01-21T23:56:14.355Z,0.10
2023-01-21T23:58:41.752Z,0.10
